Time;durP1;ratioP1;P1;durP2;ratioP2;P2;SDS_P1;SDS_P2;PMS_P1;PMS_P2;Temp;Humidity;BMP_temperature;BMP_pressure;BME280_temperature;BME280_humidity;BME280_pressure;Samples;Min_cycle;Max_cycle;Signal;HPM_P1;HPM_P2
2023/07/25 00:01:43;;;;;;;1.63;0.90;;;;;;;;;;5115403;28;20032;-57
2023/07/25 00:04:10;;;;;;;1.23;0.83;;;;;;;;;;5111108;28;20099;-57
2023/07/25 00:06:37;;;;;;;1.40;0.80;;;;;;;;;;5110394;28;20043;-57
2023/07/25 00:09:03;;;;;;;1.75;0.90;;;;;;;;;;5110213;28;20439;-57
2023/07/25 00:11:30;;;;;;;0.80;0.67;;;;;;;;;;5110087;28;20107;-58
2023/07/25 00:13:57;;;;;;;2.37;0.93;;;;;;;;;;5109801;28;20019;-57
2023/07/25 00:16:24;;;;;;;2.65;1.45;;;;;;;;;;5114241;28;20028;-57
2023/07/25 00:18:50;;;;;;;2.37;1.37;;;;;;;;;;5115017;28;20012;-57
2023/07/25 00:21:17;;;;;;;3.50;1.87;;;;;;;;;;5114800;28;20032;-57
2023/07/25 00:23:44;;;;;;;3.57;1.63;;;;;;;;;;5114907;28;20055;-57
2023/07/25 00:26:10;;;;;;;6.50;1.53;;;;;;;;;;5114697;28;20023;-57
2023/07/25 00:28:37;;;;;;;6.47;1.77;;;;;;;;;;5112033;28;20419;-57
2023/07/25 00:31:07;;;;;;;3.40;1.83;;;;;;;;;;5109299;28;20383;-57
2023/07/25 00:33:34;;;;;;;2.13;1.37;;;;;;;;;;5109643;28;20392;-57
2023/07/25 00:36:01;;;;;;;3.17;1.77;;;;;;;;;;5109777;28;20019;-57
2023/07/25 00:38:28;;;;;;;3.97;1.87;;;;;;;;;;5109541;28;20027;-58
2023/07/25 00:40:55;;;;;;;1.93;1.40;;;;;;;;;;5112570;28;20027;-57
2023/07/25 00:43:21;;;;;;;3.17;2.03;;;;;;;;;;5114416;28;20015;-57
2023/07/25 00:45:48;;;;;;;2.10;1.30;;;;;;;;;;5114470;28;20023;-58
2023/07/25 00:48:15;;;;;;;2.53;1.87;;;;;;;;;;5113966;28;20027;-57
2023/07/25 00:50:42;;;;;;;2.63;1.80;;;;;;;;;;5114284;28;20367;-57
2023/07/25 00:53:09;;;;;;;3.17;1.40;;;;;;;;;;5113310;28;20023;-57
2023/07/25 00:55:36;;;;;;;4.10;2.00;;;;;;;;;;5109016;28;20036;-57
2023/07/25 00:58:03;;;;;;;1.30;1.03;;;;;;;;;;5108560;28;20023;-57
2023/07/25 01:00:30;;;;;;;4.67;2.20;;;;;;;;;;5110662;28;20100;-57
2023/07/25 01:02:57;;;;;;;15.27;2.50;;;;;;;;;;5110534;28;20031;-57
2023/07/25 01:05:24;;;;;;;3.67;1.80;;;;;;;;;;5110523;28;20016;-57
2023/07/25 01:07:50;;;;;;;1.57;1.07;;;;;;;;;;5110661;28;20022;-57
2023/07/25 01:10:17;;;;;;;2.00;1.27;;;;;;;;;;5114229;28;20046;-57
2023/07/25 01:12:44;;;;;;;4.50;1.67;;;;;;;;;;5113828;28;20407;-57
2023/07/25 01:15:11;;;;;;;3.23;1.90;;;;;;;;;;5114168;28;20413;-57
2023/07/25 01:17:38;;;;;;;3.37;1.77;;;;;;;;;;5113328;28;20348;-57
2023/07/25 01:20:07;;;;;;;2.43;1.63;;;;;;;;;;5113487;28;20054;-58
2023/07/25 01:22:36;;;;;;;4.03;1.77;;;;;;;;;;5109559;28;20042;-57
2023/07/25 01:25:03;;;;;;;5.20;1.43;;;;;;;;;;5108728;28;20478;-57
2023/07/25 01:27:30;;;;;;;2.40;1.27;;;;;;;;;;5108724;28;20523;-57
2023/07/25 01:29:57;;;;;;;7.37;1.73;;;;;;;;;;5108702;28;20504;-57
2023/07/25 01:32:23;;;;;;;2.90;1.83;;;;;;;;;;5108559;28;20023;-58
2023/07/25 01:34:50;;;;;;;1.73;1.13;;;;;;;;;;5112819;28;20046;-57
2023/07/25 01:37:17;;;;;;;4.67;1.10;;;;;;;;;;5113251;28;20038;-57
2023/07/25 01:39:44;;;;;;;1.67;1.20;;;;;;;;;;5113365;28;20016;-57
2023/07/25 01:42:10;;;;;;;0.60;0.60;;;;;;;;;;5113201;28;20055;-57
2023/07/25 01:44:37;;;;;;;2.17;1.50;;;;;;;;;;5113365;28;20135;-57
2023/07/25 01:47:04;;;;;;;4.57;1.20;;;;;;;;;;5109837;28;20391;-57
2023/07/25 01:49:31;;;;;;;1.23;0.93;;;;;;;;;;5108332;28;20028;-58
2023/07/25 01:51:57;;;;;;;12.03;1.30;;;;;;;;;;5108018;28;20470;-57
2023/07/25 01:54:24;;;;;;;3.57;1.43;;;;;;;;;;5107989;28;20564;-57
2023/07/25 01:56:51;;;;;;;2.23;1.37;;;;;;;;;;5108244;28;20074;-57
2023/07/25 01:59:19;;;;;;;1.63;1.10;;;;;;;;;;5111653;28;20047;-57
2023/07/25 02:01:45;;;;;;;0.60;0.60;;;;;;;;;;5112691;28;20066;-57
2023/07/25 02:04:12;;;;;;;2.57;1.47;;;;;;;;;;5113142;28;20035;-57
2023/07/25 02:06:39;;;;;;;10.23;1.07;;;;;;;;;;5113012;28;20098;-57
2023/07/25 02:09:06;;;;;;;1.30;1.13;;;;;;;;;;5112438;28;20382;-57
2023/07/25 02:11:32;;;;;;;12.47;1.80;;;;;;;;;;5110148;28;20030;-57
2023/07/25 02:13:59;;;;;;;1.87;1.20;;;;;;;;;;5107942;28;20032;-57
2023/07/25 02:16:26;;;;;;;2.53;1.13;;;;;;;;;;5108025;28;20368;-57
2023/07/25 02:18:53;;;;;;;5.97;1.17;;;;;;;;;;5107943;28;20072;-57
2023/07/25 02:21:19;;;;;;;2.73;1.57;;;;;;;;;;5107533;28;20035;-57
2023/07/25 02:23:46;;;;;;;1.30;0.93;;;;;;;;;;5110232;28;20037;-58
2023/07/25 02:26:13;;;;;;;1.07;0.80;;;;;;;;;;5112738;28;20032;-57
2023/07/25 02:28:40;;;;;;;1.07;0.83;;;;;;;;;;5112609;28;20464;-58
2023/07/25 02:31:06;;;;;;;1.77;0.97;;;;;;;;;;5112668;28;20462;-57
2023/07/25 02:33:33;;;;;;;2.17;1.03;;;;;;;;;;5112480;28;20031;-57
2023/07/25 02:36:00;;;;;;;13.37;1.30;;;;;;;;;;5110231;28;20016;-58
2023/07/25 02:38:27;;;;;;;8.40;1.37;;;;;;;;;;5107786;28;20393;-57
2023/07/25 02:40:53;;;;;;;1.57;1.10;;;;;;;;;;5107318;28;20035;-58
2023/07/25 02:43:22;;;;;;;2.50;1.70;;;;;;;;;;5107780;28;20027;-57
2023/07/25 02:45:49;;;;;;;4.73;1.60;;;;;;;;;;5107278;28;20710;-57
2023/07/25 02:48:16;;;;;;;3.33;1.83;;;;;;;;;;5110106;28;20020;-57
2023/07/25 02:50:43;;;;;;;0.70;0.70;;;;;;;;;;5112408;28;20024;-57
2023/07/25 02:53:10;;;;;;;5.30;1.97;;;;;;;;;;5112311;28;20030;-58
2023/07/25 02:55:37;;;;;;;1.67;0.97;;;;;;;;;;5112328;28;20039;-57
2023/07/25 02:58:04;;;;;;;2.13;1.30;;;;;;;;;;5111962;28;20030;-57
2023/07/25 03:00:31;;;;;;;1.73;1.10;;;;;;;;;;5110756;28;20024;-57
2023/07/25 03:02:58;;;;;;;2.40;1.50;;;;;;;;;;5107230;28;20035;-57
2023/07/25 03:05:27;;;;;;;2.70;1.47;;;;;;;;;;5107531;28;20027;-57
2023/07/25 03:07:54;;;;;;;9.70;1.90;;;;;;;;;;5107425;28;20125;-57
2023/07/25 03:10:22;;;;;;;2.27;0.90;;;;;;;;;;5107284;28;20024;-57
2023/07/25 03:12:49;;;;;;;0.90;0.70;;;;;;;;;;5109185;28;20074;-57
2023/07/25 03:15:15;;;;;;;3.70;1.50;;;;;;;;;;5111710;28;20027;-57
2023/07/25 03:17:42;;;;;;;15.80;1.73;;;;;;;;;;5111218;28;20015;-58
2023/07/25 03:20:09;;;;;;;2.03;1.27;;;;;;;;;;5112357;28;20039;-57
2023/07/25 03:22:36;;;;;;;1.20;0.90;;;;;;;;;;5114821;28;20125;-57
2023/07/25 03:25:02;;;;;;;1.43;1.13;;;;;;;;;;5113644;28;20413;-57
2023/07/25 03:27:29;;;;;;;3.03;1.50;;;;;;;;;;5110172;28;20171;-57
2023/07/25 03:29:56;;;;;;;3.47;1.20;;;;;;;;;;5110419;28;20490;-58
2023/07/25 03:32:23;;;;;;;1.97;1.30;;;;;;;;;;5110159;27;20023;-57
2023/07/25 03:34:53;;;;;;;3.17;0.90;;;;;;;;;;5108890;28;20032;-56
2023/07/25 03:37:20;;;;;;;1.80;0.77;;;;;;;;;;5115281;28;20027;-56
2023/07/25 03:39:53;;;;;;;10.60;1.47;;;;;;;;;;5115523;28;20059;-57
2023/07/25 03:42:21;;;;;;;1.87;0.83;;;;;;;;;;5114920;28;20078;-57
2023/07/25 03:44:48;;;;;;;1.70;1.03;;;;;;;;;;5115605;28;20115;-57
2023/07/25 03:47:15;;;;;;;2.83;1.83;;;;;;;;;;5113088;28;20470;-57
2023/07/25 03:49:45;;;;;;;7.63;1.20;;;;;;;;;;5089937;28;20054;-57
2023/07/25 03:52:12;;;;;;;1.57;1.07;;;;;;;;;;5089642;28;20102;-57
2023/07/25 03:54:39;;;;;;;15.03;1.83;;;;;;;;;;5089544;28;20495;-57
2023/07/25 03:57:07;;;;;;;1.83;1.37;;;;;;;;;;5096589;28;20054;-57
2023/07/25 03:59:33;;;;;;;3.10;1.47;;;;;;;;;;5113155;28;20024;-56
2023/07/25 04:02:00;;;;;;;4.43;1.07;;;;;;;;;;5114998;28;20027;-56
2023/07/25 04:04:27;;;;;;;1.93;1.30;;;;;;;;;;5113938;28;20072;-57
2023/07/25 04:06:54;;;;;;;2.27;1.67;;;;;;;;;;5114764;28;20135;-56
2023/07/25 04:09:24;;;;;;;1.20;0.80;;;;;;;;;;5113462;28;20042;-56
2023/07/25 04:11:51;;;;;;;7.17;1.83;;;;;;;;;;5109489;28;20061;-57
2023/07/25 04:14:18;;;;;;;3.30;1.43;;;;;;;;;;5109461;28;20031;-56
2023/07/25 04:16:48;;;;;;;1.73;1.17;;;;;;;;;;5109633;28;20020;-57
2023/07/25 04:19:17;;;;;;;2.27;1.53;;;;;;;;;;5109350;28;20129;-57
2023/07/25 04:21:44;;;;;;;5.60;2.00;;;;;;;;;;5113639;28;20035;-57
2023/07/25 04:24:11;;;;;;;5.80;1.97;;;;;;;;;;5112452;28;20497;-57
2023/07/25 04:26:41;;;;;;;2.33;1.47;;;;;;;;;;5111201;28;21365;-58
2023/07/25 04:29:11;;;;;;;3.47;2.23;;;;;;;;;;5110794;28;20407;-56
2023/07/25 04:31:38;;;;;;;3.27;1.90;;;;;;;;;;5112597;28;20027;-57
2023/07/25 04:34:05;;;;;;;5.27;2.10;;;;;;;;;;5107671;28;20038;-57
2023/07/25 04:36:35;;;;;;;4.13;1.93;;;;;;;;;;5108910;28;20536;-57
2023/07/25 04:39:04;;;;;;;4.10;2.33;;;;;;;;;;5109326;28;20427;-57
2023/07/25 04:41:30;;;;;;;9.93;2.27;;;;;;;;;;5108978;28;20036;-57
2023/07/25 04:43:57;;;;;;;3.73;2.13;;;;;;;;;;5114792;28;20466;-57
2023/07/25 04:46:24;;;;;;;3.20;1.57;;;;;;;;;;5114072;28;20034;-58
2023/07/25 04:48:51;;;;;;;6.30;3.03;;;;;;;;;;5113576;28;20392;-57
2023/07/25 04:51:20;;;;;;;4.10;2.50;;;;;;;;;;5113454;28;20478;-57
2023/07/25 04:53:46;;;;;;;4.20;2.73;;;;;;;;;;5114225;28;20020;-57
2023/07/25 04:56:13;;;;;;;2.63;2.07;;;;;;;;;;5108659;28;20023;-57
2023/07/25 04:58:43;;;;;;;3.00;2.10;;;;;;;;;;5108175;28;20032;-57
2023/07/25 05:01:12;;;;;;;4.60;2.10;;;;;;;;;;5097365;28;20133;-56
2023/07/25 05:03:39;;;;;;;2.10;1.47;;;;;;;;;;5108107;28;20030;-57
2023/07/25 05:06:06;;;;;;;4.57;2.00;;;;;;;;;;5113033;28;20027;-58
2023/07/25 05:08:32;;;;;;;5.40;2.33;;;;;;;;;;5093261;28;20028;-57
2023/07/25 05:11:01;;;;;;;5.53;2.23;;;;;;;;;;5111679;28;20073;-57
2023/07/25 05:13:27;;;;;;;5.67;2.50;;;;;;;;;;5113238;28;20032;-57
2023/07/25 05:15:54;;;;;;;4.10;2.30;;;;;;;;;;5093489;28;20113;-57
2023/07/25 05:18:21;;;;;;;8.40;2.57;;;;;;;;;;5108070;28;20023;-57
2023/07/25 05:20:48;;;;;;;9.47;2.80;;;;;;;;;;5107976;28;20471;-58
2023/07/25 05:23:14;;;;;;;2.87;1.73;;;;;;;;;;5108128;28;20012;-57
2023/07/25 05:25:43;;;;;;;6.17;1.90;;;;;;;;;;5107755;28;20030;-57
2023/07/25 05:28:09;;;;;;;3.17;2.23;;;;;;;;;;5112346;28;20644;-57
2023/07/25 05:30:36;;;;;;;9.63;1.93;;;;;;;;;;5113304;28;20023;-56
2023/07/25 05:33:03;;;;;;;5.30;1.57;;;;;;;;;;5113375;28;20028;-57
2023/07/25 05:35:30;;;;;;;6.43;1.73;;;;;;;;;;5113188;28;20036;-57
2023/07/25 05:37:57;;;;;;;3.90;1.97;;;;;;;;;;5112811;28;20546;-57
2023/07/25 05:40:24;;;;;;;7.30;2.20;;;;;;;;;;5108337;28;20784;-57
2023/07/25 05:42:50;;;;;;;1.53;0.83;;;;;;;;;;5107075;28;20115;-57
2023/07/25 05:45:17;;;;;;;1.33;0.63;;;;;;;;;;5107758;28;20043;-57
2023/07/25 05:47:44;;;;;;;1.50;0.87;;;;;;;;;;5107295;28;20035;-57
2023/07/25 05:50:11;;;;;;;2.60;1.33;;;;;;;;;;5111522;28;20032;-57
2023/07/25 05:52:38;;;;;;;1.80;1.03;;;;;;;;;;5112586;28;20133;-57
2023/07/25 05:55:05;;;;;;;2.33;1.00;;;;;;;;;;5112310;28;20026;-56
2023/07/25 05:57:32;;;;;;;24.37;2.10;;;;;;;;;;5112546;28;20107;-57
2023/07/25 05:59:58;;;;;;;0.80;0.73;;;;;;;;;;5113014;28;20088;-57
2023/07/25 06:02:25;;;;;;;1.87;1.13;;;;;;;;;;5108859;28;20389;-57
2023/07/25 06:04:52;;;;;;;1.30;0.93;;;;;;;;;;5107136;28;20031;-57
2023/07/25 06:07:19;;;;;;;1.47;1.00;;;;;;;;;;5107201;28;20035;-57
2023/07/25 06:09:46;;;;;;;1.00;0.70;;;;;;;;;;5107210;28;20068;-57
2023/07/25 06:12:13;;;;;;;5.50;1.50;;;;;;;;;;5109524;28;20052;-57
2023/07/25 06:14:40;;;;;;;1.37;0.80;;;;;;;;;;5112273;28;20443;-57
2023/07/25 06:17:07;;;;;;;1.30;0.83;;;;;;;;;;5112884;28;20463;-57
2023/07/25 06:19:34;;;;;;;0.70;0.60;;;;;;;;;;5112897;28;20032;-57
2023/07/25 06:22:00;;;;;;;1.90;1.00;;;;;;;;;;5112565;28;20487;-57
2023/07/25 06:24:27;;;;;;;2.07;1.27;;;;;;;;;;5109883;28;20074;-56
2023/07/25 06:26:54;;;;;;;3.30;1.03;;;;;;;;;;5107080;28;20073;-56
2023/07/25 06:29:21;;;;;;;2.33;0.60;;;;;;;;;;5107112;28;20118;-57
2023/07/25 06:31:47;;;;;;;3.90;0.97;;;;;;;;;;5106743;28;20016;-57
2023/07/25 06:34:14;;;;;;;1.37;0.90;;;;;;;;;;5109244;28;20106;-57
2023/07/25 06:36:41;;;;;;;2.83;1.27;;;;;;;;;;5112527;28;20032;-57
2023/07/25 06:39:08;;;;;;;2.10;1.10;;;;;;;;;;5112405;28;20027;-57
2023/07/25 06:41:35;;;;;;;3.53;0.90;;;;;;;;;;5112464;28;20482;-56
2023/07/25 06:44:01;;;;;;;5.37;1.33;;;;;;;;;;5112432;28;20036;-57
2023/07/25 06:46:28;;;;;;;1.07;0.67;;;;;;;;;;5109981;28;20028;-56
2023/07/25 06:48:55;;;;;;;12.10;1.03;;;;;;;;;;5106609;28;20379;-57
2023/07/25 06:51:22;;;;;;;1.37;0.83;;;;;;;;;;5107089;28;20015;-58
2023/07/25 06:53:48;;;;;;;1.23;0.80;;;;;;;;;;5106687;28;20717;-57
2023/07/25 06:56:15;;;;;;;0.90;0.70;;;;;;;;;;5110955;28;20374;-57
2023/07/25 06:58:42;;;;;;;10.93;1.00;;;;;;;;;;5116417;28;20473;-57
2023/07/25 07:01:09;;;;;;;0.60;0.60;;;;;;;;;;5116337;28;20036;-57
2023/07/25 07:03:36;;;;;;;2.77;0.97;;;;;;;;;;5116118;28;20019;-57
2023/07/25 07:06:02;;;;;;;12.53;1.20;;;;;;;;;;5115781;28;20088;-56
2023/07/25 07:08:29;;;;;;;1.27;0.50;;;;;;;;;;5114163;28;20019;-57
2023/07/25 07:10:56;;;;;;;1.27;0.80;;;;;;;;;;5110710;28;20098;-57
2023/07/25 07:13:24;;;;;;;1.40;1.00;;;;;;;;;;5110722;28;20028;-57
2023/07/25 07:15:51;;;;;;;2.73;1.20;;;;;;;;;;5110629;28;20034;-57
2023/07/25 07:18:18;;;;;;;3.23;1.33;;;;;;;;;;5111645;28;20047;-57
2023/07/25 07:20:48;;;;;;;5.00;0.83;;;;;;;;;;5115577;28;20077;-57
2023/07/25 07:23:15;;;;;;;1.47;0.93;;;;;;;;;;5115657;28;20043;-56
2023/07/25 07:25:43;;;;;;;2.10;1.03;;;;;;;;;;5115516;28;20027;-58
2023/07/25 07:28:09;;;;;;;4.50;1.37;;;;;;;;;;5116100;28;20105;-56
2023/07/25 07:30:36;;;;;;;0.80;0.63;;;;;;;;;;5114495;28;20034;-57
2023/07/25 07:33:03;;;;;;;4.63;0.83;;;;;;;;;;5110275;28;20820;-57
2023/07/25 07:35:30;;;;;;;0.77;0.67;;;;;;;;;;5110487;28;20502;-56
2023/07/25 07:37:57;;;;;;;0.70;0.47;;;;;;;;;;5109786;28;20413;-57
2023/07/25 07:40:24;;;;;;;1.50;1.00;;;;;;;;;;5110750;28;20016;-56
2023/07/25 07:42:50;;;;;;;3.63;1.10;;;;;;;;;;5115404;28;20067;-57
2023/07/25 07:45:17;;;;;;;6.37;1.03;;;;;;;;;;5115868;28;20016;-57
2023/07/25 07:47:44;;;;;;;5.37;1.03;;;;;;;;;;5115367;28;20440;-57
2023/07/25 07:50:11;;;;;;;2.63;1.30;;;;;;;;;;5115341;28;20020;-57
2023/07/25 07:52:41;;;;;;;0.80;0.70;;;;;;;;;;5115014;28;20465;-57
2023/07/25 07:55:09;;;;;;;3.03;1.10;;;;;;;;;;5109416;28;20443;-57
2023/07/25 07:57:43;;;;;;;1.27;0.70;;;;;;;;;;5109834;28;20114;-57
2023/07/25 08:00:10;;;;;;;2.43;0.70;;;;;;;;;;5110106;28;20103;-56
2023/07/25 08:02:37;;;;;;;0.93;0.80;;;;;;;;;;5109580;28;20047;-57
2023/07/25 08:05:04;;;;;;;0.97;0.80;;;;;;;;;;5115140;28;20107;-57
2023/07/25 08:07:30;;;;;;;1.77;1.13;;;;;;;;;;5114563;28;20203;-57
2023/07/25 08:09:57;;;;;;;4.90;0.97;;;;;;;;;;5114481;28;20023;-57
2023/07/25 08:12:25;;;;;;;0.70;0.60;;;;;;;;;;5114803;28;20031;-57
2023/07/25 08:14:52;;;;;;;0.83;0.77;;;;;;;;;;5114772;28;20020;-57
2023/07/25 08:17:19;;;;;;;2.07;0.67;;;;;;;;;;5109741;28;20026;-57
2023/07/25 08:19:46;;;;;;;1.07;0.83;;;;;;;;;;5109333;28;20540;-57
2023/07/25 08:22:12;;;;;;;0.83;0.60;;;;;;;;;;5109409;28;20035;-58
2023/07/25 08:24:40;;;;;;;5.20;1.10;;;;;;;;;;5109337;28;20059;-57
2023/07/25 08:27:07;;;;;;;1.07;0.63;;;;;;;;;;5114448;28;20019;-56
2023/07/25 08:29:34;;;;;;;1.17;0.80;;;;;;;;;;5114439;28;20027;-56
2023/07/25 08:32:01;;;;;;;1.30;0.57;;;;;;;;;;5114871;28;20098;-57
2023/07/25 08:34:27;;;;;;;1.07;0.73;;;;;;;;;;5114580;28;20027;-57
2023/07/25 08:36:54;;;;;;;3.73;1.27;;;;;;;;;;5114418;28;20035;-57
2023/07/25 08:39:21;;;;;;;0.50;0.50;;;;;;;;;;5108990;28;20110;-57
2023/07/25 08:41:52;;;;;;;1.67;1.20;;;;;;;;;;5108761;28;20028;-57
2023/07/25 08:44:21;;;;;;;1.93;0.87;;;;;;;;;;5108519;28;20161;-56
2023/07/25 08:46:50;;;;;;;0.50;0.43;;;;;;;;;;5108693;28;20036;-57
2023/07/25 08:49:17;;;;;;;0.57;0.50;;;;;;;;;;5114004;28;20033;-56
2023/07/25 08:51:45;;;;;;;5.10;1.27;;;;;;;;;;5114515;28;20023;-57
2023/07/25 08:54:17;;;;;;;1.93;1.07;;;;;;;;;;5114213;28;20036;-56
2023/07/25 08:56:45;;;;;;;3.93;0.70;;;;;;;;;;5113725;28;20027;-57
2023/07/25 08:59:12;;;;;;;2.93;0.77;;;;;;;;;;5114284;28;20027;-57
2023/07/25 09:01:39;;;;;;;0.70;0.50;;;;;;;;;;5108476;28;20043;-57
2023/07/25 09:04:08;;;;;;;3.33;1.50;;;;;;;;;;5108529;28;20028;-56
2023/07/25 09:06:35;;;;;;;1.83;0.80;;;;;;;;;;5108131;28;20034;-57
2023/07/25 09:09:01;;;;;;;1.17;0.83;;;;;;;;;;5108298;28;20219;-57
2023/07/25 09:11:28;;;;;;;6.80;0.93;;;;;;;;;;5112713;28;20119;-57
2023/07/25 09:13:56;;;;;;;0.87;0.67;;;;;;;;;;5113725;28;20355;-57
2023/07/25 09:16:22;;;;;;;4.20;1.23;;;;;;;;;;5113937;28;20766;-56
2023/07/25 09:18:49;;;;;;;0.73;0.60;;;;;;;;;;5112974;28;20482;-56
2023/07/25 09:21:16;;;;;;;1.03;0.90;;;;;;;;;;5113113;28;20035;-57
2023/07/25 09:23:51;;;;;;;0.50;0.50;;;;;;;;;;5108806;28;20024;-57
2023/07/25 09:26:21;;;;;;;1.05;0.82;;;;;;;;;;5107635;28;20035;-57
2023/07/25 09:28:49;;;;;;;1.37;0.90;;;;;;;;;;5107941;28;20063;-57
2023/07/25 09:31:16;;;;;;;1.40;0.83;;;;;;;;;;5107847;28;20762;-56
2023/07/25 09:33:42;;;;;;;2.10;1.03;;;;;;;;;;5112664;28;20020;-56
2023/07/25 09:36:09;;;;;;;0.40;0.40;;;;;;;;;;5113405;28;20026;-56
2023/07/25 09:38:36;;;;;;;0.97;0.77;;;;;;;;;;5113157;28;20039;-58
2023/07/25 09:41:04;;;;;;;1.80;1.03;;;;;;;;;;5113195;28;20030;-57
2023/07/25 09:43:30;;;;;;;12.20;1.03;;;;;;;;;;5113114;28;20470;-56
2023/07/25 09:45:57;;;;;;;0.80;0.67;;;;;;;;;;5108222;28;20023;-57
2023/07/25 09:48:24;;;;;;;0.80;0.63;;;;;;;;;;5107846;28;20031;-56
2023/07/25 09:50:51;;;;;;;1.70;0.87;;;;;;;;;;5107844;28;20023;-57
2023/07/25 09:53:18;;;;;;;2.47;0.90;;;;;;;;;;5107462;28;20062;-56
2023/07/25 09:55:46;;;;;;;22.13;1.63;;;;;;;;;;5111456;28;20133;-57
2023/07/25 09:58:12;;;;;;;1.67;0.80;;;;;;;;;;5113089;28;20379;-56
2023/07/25 10:00:40;;;;;;;0.70;0.60;;;;;;;;;;5112650;28;20047;-56
2023/07/25 10:03:10;;;;;;;1.50;1.17;;;;;;;;;;5112695;28;20048;-57
2023/07/25 10:05:45;;;;;;;1.50;1.03;;;;;;;;;;5112626;28;20023;-57
2023/07/25 10:08:11;;;;;;;;;;;;;;;;;;5108229;28;20038;-57
2023/07/25 10:10:38;;;;;;;0.97;0.70;;;;;;;;;;5107356;28;19908;-56
2023/07/25 10:13:05;;;;;;;0.70;0.60;;;;;;;;;;5106884;28;20031;-56
2023/07/25 10:15:32;;;;;;;4.97;1.13;;;;;;;;;;5107097;28;20023;-57
2023/07/25 10:18:02;;;;;;;1.10;0.70;;;;;;;;;;5110807;28;20630;-56
2023/07/25 10:20:29;;;;;;;1.40;1.10;;;;;;;;;;5112840;28;20023;-56
2023/07/25 10:23:07;;;;;;;1.03;0.90;;;;;;;;;;5112446;28;20042;-56
2023/07/25 10:25:34;;;;;;;5.23;1.40;;;;;;;;;;5092243;28;20437;-57
2023/07/25 10:28:02;;;;;;;1.70;1.10;;;;;;;;;;5092321;28;20030;-56
2023/07/25 10:30:33;;;;;;;14.33;1.47;;;;;;;;;;5087416;28;20035;-57
2023/07/25 10:33:04;;;;;;;1.33;1.03;;;;;;;;;;5093808;28;20019;-56
2023/07/25 10:35:40;;;;;;;2.90;1.43;;;;;;;;;;5107112;28;20474;-56
2023/07/25 10:38:11;;;;;;;1.87;1.30;;;;;;;;;;5086609;28;20032;-56
2023/07/25 10:40:54;;;;;;;1.10;0.80;;;;;;;;;;5091532;28;20471;-56
2023/07/25 10:43:22;;;;;;;2.27;0.80;;;;;;;;;;5099007;28;20036;-57
2023/07/25 10:45:52;;;;;;;2.07;0.93;;;;;;;;;;5112400;28;20119;-56
2023/07/25 21:43:32;;;;;;;5.47;1.60;;;;;;;;;;5107198;28;20058;-59
2023/07/25 21:45:58;;;;;;;5.30;1.55;;;;;;;;;;5108778;28;20039;-58
2023/07/25 21:48:25;;;;;;;1.38;1.05;;;;;;;;;;5109999;28;20031;-58
2023/07/25 21:50:52;;;;;;;2.88;1.17;;;;;;;;;;5114109;28;20487;-58
2023/07/25 21:53:19;;;;;;;4.13;1.95;;;;;;;;;;5114157;28;20020;-58
2023/07/25 21:55:46;;;;;;;5.65;2.17;;;;;;;;;;5114156;28;20059;-58
2023/07/25 21:58:12;;;;;;;2.17;1.80;;;;;;;;;;5126973;27;20026;-58
2023/07/25 22:00:39;;;;;;;9.50;2.90;;;;;;;;;;5133285;27;20031;-58
2023/07/25 22:03:06;;;;;;;4.55;1.92;;;;;;;;;;5128948;27;20035;-59
2023/07/25 22:05:33;;;;;;;2.83;1.80;;;;;;;;;;5113378;27;20089;-58
2023/07/25 22:07:59;;;;;;;4.82;1.60;;;;;;;;;;5108580;28;20482;-58
2023/07/25 22:10:26;;;;;;;4.97;1.95;;;;;;;;;;5108843;28;20416;-58
2023/07/25 22:12:53;;;;;;;5.15;1.40;;;;;;;;;;5113886;28;20546;-58
2023/07/25 22:15:20;;;;;;;2.10;1.23;;;;;;;;;;5111607;28;20093;-58
2023/07/25 22:17:46;;;;;;;6.32;1.17;;;;;;;;;;5113443;28;20011;-58
2023/07/25 22:20:13;;;;;;;2.45;1.40;;;;;;;;;;5112810;28;20099;-58
2023/07/25 22:22:40;;;;;;;13.57;1.90;;;;;;;;;;5112533;28;20027;-58
2023/07/25 22:25:07;;;;;;;2.42;1.02;;;;;;;;;;5106597;28;20043;-58
2023/07/25 22:27:34;;;;;;;9.93;1.90;;;;;;;;;;5106523;28;20036;-58
2023/07/25 22:30:01;;;;;;;4.97;1.50;;;;;;;;;;5107860;28;20019;-58
2023/07/25 22:32:27;;;;;;;1.35;0.77;;;;;;;;;;5107922;28;20046;-58
2023/07/25 22:34:54;;;;;;;2.15;1.10;;;;;;;;;;5113267;28;20058;-58
2023/07/25 22:37:24;;;;;;;3.85;1.65;;;;;;;;;;5111847;28;20027;-58
2023/07/25 22:39:51;;;;;;;4.85;1.35;;;;;;;;;;5112848;28;20106;-59
2023/07/25 22:42:18;;;;;;;2.40;1.13;;;;;;;;;;5111344;28;20513;-58
2023/07/25 22:44:45;;;;;;;1.73;1.05;;;;;;;;;;5111463;28;20038;-58
2023/07/25 22:47:12;;;;;;;5.07;1.38;;;;;;;;;;5106667;28;20032;-58
2023/07/25 22:49:38;;;;;;;20.15;2.85;;;;;;;;;;5106099;28;20023;-59
2023/07/25 22:52:05;;;;;;;1.13;0.85;;;;;;;;;;5107417;28;20022;-58
2023/07/25 22:54:32;;;;;;;3.10;1.10;;;;;;;;;;5105888;28;20166;-58
2023/07/25 22:57:02;;;;;;;3.17;1.13;;;;;;;;;;5111483;28;20015;-58
2023/07/25 22:59:29;;;;;;;5.07;1.60;;;;;;;;;;5111792;28;20106;-58
2023/07/25 23:01:56;;;;;;;4.25;1.65;;;;;;;;;;5111094;28;20479;-58
2023/07/25 23:04:23;;;;;;;3.63;1.05;;;;;;;;;;5112600;28;20514;-58
2023/07/25 23:06:49;;;;;;;7.93;1.80;;;;;;;;;;5111906;28;20023;-59
2023/07/25 23:09:16;;;;;;;4.10;1.13;;;;;;;;;;5106093;28;20019;-58
2023/07/25 23:11:43;;;;;;;4.22;1.13;;;;;;;;;;5106635;28;20042;-58
2023/07/25 23:14:10;;;;;;;7.82;1.85;;;;;;;;;;5106685;28;20055;-58
2023/07/25 23:16:37;;;;;;;8.07;1.45;;;;;;;;;;5106671;28;20024;-58
2023/07/25 23:19:03;;;;;;;3.55;1.02;;;;;;;;;;5111313;28;20023;-58
2023/07/25 23:21:30;;;;;;;2.58;1.38;;;;;;;;;;5110652;28;20019;-59
2023/07/25 23:23:57;;;;;;;2.95;1.70;;;;;;;;;;5107010;28;20106;-58
2023/07/25 23:26:24;;;;;;;2.70;1.10;;;;;;;;;;5111776;28;20073;-58
2023/07/25 23:28:51;;;;;;;5.10;1.80;;;;;;;;;;5111823;28;20024;-57
2023/07/25 23:31:18;;;;;;;14.90;1.97;;;;;;;;;;5107515;28;20549;-58
2023/07/25 23:33:44;;;;;;;11.55;1.90;;;;;;;;;;5106558;28;20492;-57
2023/07/25 23:36:11;;;;;;;2.15;1.13;;;;;;;;;;5106386;28;20027;-58
2023/07/25 23:38:39;;;;;;;3.43;1.13;;;;;;;;;;5109397;28;20023;-58
2023/07/25 23:41:06;;;;;;;2.13;1.20;;;;;;;;;;5113270;28;20046;-58
2023/07/25 23:43:33;;;;;;;4.03;1.37;;;;;;;;;;5114695;28;20071;-57
2023/07/25 23:46:00;;;;;;;5.20;1.73;;;;;;;;;;5115073;28;20032;-58
2023/07/25 23:48:26;;;;;;;3.10;1.20;;;;;;;;;;5109098;28;20164;-57
2023/07/25 23:50:53;;;;;;;2.60;1.13;;;;;;;;;;5115411;28;20016;-57
2023/07/25 23:53:20;;;;;;;6.40;1.50;;;;;;;;;;5111334;28;20382;-58
2023/07/25 23:55:47;;;;;;;3.73;1.50;;;;;;;;;;5110178;28;20028;-58
2023/07/25 23:58:13;;;;;;;7.07;1.10;;;;;;;;;;5123013;27;20023;-58
